• Join FlightAware (Why Join?)
  • Login
  • US Flag 
12:17AM EDT


 

Airport Tracker/Info


-or-


 

Live Flight TrackerFlight Track Log ✈ UAL440 ✈ 27-Jun-2013 ✈ KSNA - KDEN

Flight Track Log - Related Links

Times and Time Zones

All times are in EDT time to prevent confusion due to time zone crossing. See the UAL440 flight status page for this flight to view local times or setup timezone preferences in your user account.

Time Position Orientation Groundspeed Altitude Reporting Facility
EDT Latitude Longitude Course Direction KTS MPH feet Rate Location/Type
10:39AM 33.6500 -117.8833 90° East 133 153 1,700  Level Southern California TRACON
10:41AM 33.4667 -117.7057 90° East  Level FlightAware Approximate
10:41AM 33.5750 -117.8983 189° South 157 181 3,900  Level Los Angeles Center
10:42AM 33.5157 -117.6017 54° Northeast  Level FlightAware Approximate
10:42AM 33.5108 -117.8575 152° Southeast 251 289 6,000  Level Los Angeles Center
10:43AM 33.5580 -117.4897 66° East  Level FlightAware Approximate
10:43AM 33.5078 -117.7711 92° East 283 326 7,700  Level Los Angeles Center
10:44AM 33.5833 -117.3727 90° East  Level FlightAware Approximate
10:44AM 33.5325 -117.6789 72° East 292 336 10,800  Level Los Angeles Center
10:45AM 33.5650 -117.5522 73° East 322 371 12,700 1,980 Climbing Los Angeles Center
10:46AM 33.5850 -117.4319 79° East 373 429 15,000 2,100 Climbing Los Angeles Center
10:47AM 33.5897 -117.3044 87° East 385 443 17,100 1,740 Climbing Los Angeles Center
10:48AM 33.5942 -117.2022 87° East 387 445 18,700 1,800 Climbing Los Angeles Center
10:49AM 33.5997 -117.0406 88° East 403 464 20,900 1,800 Climbing Los Angeles Center
10:50AM 33.6047 -116.9036 87° East 411 473 22,500 1,500 Climbing Los Angeles Center
10:51AM 33.6089 -116.7531 88° East 425 489 24,100 1,440 Climbing Los Angeles Center
10:52AM 33.6144 -116.6064 87° East 437 503 25,500 1,680 Climbing Los Angeles Center
10:53AM 33.6322 -116.4297 83° East 447 514 27,600 1,560 Climbing Los Angeles Center
10:54AM 33.6986 -116.3028 58° Northeast 448 516 28,800 1,560 Climbing Los Angeles Center
10:55AM 33.7675 -116.1719 58° Northeast 459 528 30,900 1,500 Climbing Los Angeles Center
10:56AM 33.8350 -116.0447 57° Northeast 453 521 31,900 1,140 Climbing Los Angeles Center
10:57AM 33.9036 -115.9178 57° Northeast 453 521 33,300 1,140 Climbing Los Angeles Center
10:58AM 33.9725 -115.7858 58° Northeast 461 531 34,300 960 Climbing Los Angeles Center
10:59AM 34.0414 -115.6564 57° Northeast 460 529 35,400 1,200 Climbing Los Angeles Center
11:00AM 34.1225 -115.4994 58° Northeast 460 529 36,900 720 Climbing Los Angeles Center
11:01AM 34.1897 -115.3731 57° Northeast 453 521 36,900  Level Los Angeles Center
11:02AM 34.2567 -115.2442 58° Northeast 451 519 37,000  Climbing Los Angeles Center
11:04AM 34.3239 -115.1164 57° Northeast 452 520 37,000 -60 Level Los Angeles Center
11:05AM 34.3897 -114.9886 58° Northeast 449 517 36,900  Descending Los Angeles Center
11:06AM 34.4558 -114.8600 58° Northeast 449 517 37,000  Climbing Los Angeles Center
11:07AM 34.5350 -114.7072 58° Northeast 449 517 37,000  Level Los Angeles Center
11:08AM 34.6008 -114.5786 58° Northeast 448 516 37,000  Level Los Angeles Center
11:09AM 34.6600 -114.4611 59° Northeast 451 519 37,000  Level Los Angeles Center
11:10AM 34.7383 -114.3050 59° Northeast 452 520 37,000  Level Los Angeles Center
11:11AM 34.8042 -114.1767 58° Northeast 448 516 37,000  Level Los Angeles Center
11:12AM 34.8700 -114.0472 58° Northeast 450 518 37,000  Level Los Angeles Center
11:13AM 34.9383 -113.9106 59° Northeast 448 516 37,000  Level Los Angeles Center
11:14AM 35.0017 -113.7836 59° Northeast 444 511 37,000  Level Los Angeles Center
11:15AM 35.0661 -113.6553 58° Northeast 446 513 37,000  Level Los Angeles Center
11:16AM 35.1300 -113.5275 59° Northeast 445 512 37,000  Level Los Angeles Center
11:17AM 35.2061 -113.3722 59° Northeast 446 513 37,000  Level Los Angeles Center
11:18AM 35.2681 -113.2469 59° Northeast 446 513 37,000  Level Los Angeles Center
11:19AM 35.3328 -113.1167 59° Northeast 447 514 37,000  Level Los Angeles Center
11:20AM 35.3958 -112.9847 60° Northeast 449 517 37,000  Level Los Angeles Center
11:21AM 35.4728 -112.8306 58° Northeast 459 528 37,000  Level Los Angeles Center
11:22AM 35.5356 -112.6992 60° Northeast 451 519 37,000  Level Los Angeles Center
11:23AM 35.5950 -112.5756 59° Northeast 448 516 37,000  Level Los Angeles Center
11:24AM 35.6575 -112.4442 60° Northeast 448 516 37,000  Level Los Angeles Center
11:25AM 35.7333 -112.2883 59° Northeast 446 513 37,000  Level Los Angeles Center
11:26AM 35.7961 -112.1569 59° Northeast 447 514 37,000  Level Los Angeles Center
11:27AM 35.8589 -112.0261 59° Northeast 447 514 37,000  Level Los Angeles Center
11:28AM 35.9250 -111.8842 60° Northeast 448 516 37,000  Level Los Angeles Center
11:29AM 35.9881 -111.7494 60° Northeast 452 520 37,000  Level Los Angeles Center
11:31AM 36.0867 -111.5386 60° Northeast 451 519 37,000  Level Denver Center
11:32AM 36.1617 -111.3786 60° Northeast 450 518 37,000  Level Denver Center
11:33AM 36.2242 -111.2464 60° Northeast 448 516 37,000  Level Denver Center
11:34AM 36.2739 -111.1400 60° Northeast 448 516 37,000  Level Denver Center
11:35AM 36.3464 -110.9797 61° Northeast 446 513 37,000  Level Denver Center
11:36AM 36.4058 -110.8494 60° Northeast 443 510 37,000  Level Denver Center
11:37AM 36.4792 -110.6903 60° Northeast 444 511 37,000  Level Denver Center
11:38AM 36.5403 -110.5586 60° Northeast 442 509 37,000  Level Denver Center
11:39AM 36.5997 -110.4267 61° Northeast 440 506 37,000  Level Denver Center
11:41AM 36.6711 -110.2683 61° Northeast 440 506 37,000  Level Denver Center
11:42AM 36.7353 -110.1253 61° Northeast 439 505 37,000  Level Denver Center
11:43AM 36.7917 -109.9975 61° Northeast 439 505 37,000  Level Denver Center
11:44AM 36.8594 -109.8481 60° Northeast 443 510 37,000  Level Denver Center
11:45AM 36.9164 -109.7194 61° Northeast 442 509 37,000  Level Denver Center
11:46AM 36.9825 -109.5700 61° Northeast 439 505 37,000  Level Denver Center
11:47AM 37.0392 -109.4400 61° Northeast 442 509 37,000  Level Denver Center
11:48AM 37.1050 -109.2914 61° Northeast 439 505 37,000  Level Denver Center
11:49AM 37.1608 -109.1636 61° Northeast 436 502 37,000  Level Denver Center
11:50AM 37.2264 -109.0117 62° Northeast 440 506 37,000  Level Denver Center
11:51AM 37.2831 -108.8831 61° Northeast 439 505 37,000  Level Denver Center
11:52AM 37.3381 -108.7561 61° Northeast 433 498 37,000  Level Denver Center
11:53AM 37.4022 -108.6064 62° Northeast 434 499 37,000  Level Denver Center
11:54AM 37.4569 -108.4767 62° Northeast 435 501 37,000  Level Denver Center
11:55AM 37.5208 -108.3264 62° Northeast 435 501 37,000  Level Denver Center
11:56AM 37.5664 -108.2167 62° Northeast 439 505 37,000  Level Denver Center
11:57AM 37.6214 -108.0872 62° Northeast 437 503 37,000  Level Denver Center
11:58AM 37.6933 -107.9139 62° Northeast 437 503 37,000  Level Denver Center
11:59AM 37.7572 -107.7642 62° Northeast 434 499 37,000  Level Denver Center
12:00PM 37.8111 -107.6336 62° Northeast 436 502 37,000  Level Denver Center
12:01PM 37.8744 -107.4800 62° Northeast 439 505 37,000  Level Denver Center
12:02PM 37.9289 -107.3489 62° Northeast 441 507 37,000  Level Denver Center
12:03PM 37.9736 -107.2400 62° Northeast 438 504 37,000 -240 Level Denver Center
12:04PM 38.0347 -107.0903 63° Northeast 440 506 36,600 -480 Descending Denver Center
12:06PM 38.1044 -106.9175 63° Northeast 451 519 36,000 -480 Descending Denver Center
12:07PM 38.1722 -106.7514 63° Northeast 453 521 35,600 -720 Descending Denver Center
12:08PM 38.2419 -106.5981 60° Northeast 449 517 34,500 -1,020 Descending Denver Center
12:09PM 38.3200 -106.4889 48° Northeast 457 526 33,600 -1,020 Descending Denver Center
12:10PM 38.4292 -106.3536 44° Northeast 457 526 32,400 -1,080 Descending Denver Center
12:11PM 38.5219 -106.2375 44° Northeast 466 536 31,400 -1,020 Descending Denver Center
12:12PM 38.6153 -106.1214 44° Northeast 466 536 30,400 -1,020 Descending Denver Center
12:13PM 38.7164 -105.9942 44° Northeast 460 529 29,300 -1,260 Descending Denver Center
12:14PM 38.8011 -105.8878 44° Northeast 451 519 27,900 -1,560 Descending Denver Center
12:15PM 38.8850 -105.7819 44° Northeast 444 511 26,100 -2,040 Descending Denver Center
12:16PM 38.9769 -105.6636 45° Northeast 427 491 23,700 -2,220 Descending Denver Center
12:17PM 39.0536 -105.5669 44° Northeast 410 472 21,600 -1,980 Descending Denver Center
12:18PM 39.1417 -105.4536 45° Northeast 401 461 19,700 -1,800 Descending Denver Center
12:19PM 39.2142 -105.3600 45° Northeast 372 428 18,000 -1,200 Descending Denver Center
12:20PM 39.2678 -105.2508 58° Northeast 341 392 17,300 -1,080 Descending Denver Center
12:21PM 39.2900 -105.1358 76° East 332 382 15,800 -1,200 Descending Denver Center
12:22PM 39.3111 -105.0161 77° East 322 371 14,600 -780 Descending Denver Center
12:23PM 39.3333 -104.8978 76° East 277 319 14,100 -540 Descending Denver Center
12:24PM 39.3531 -104.8225 71° East 265 305 13,500 -1,020 Descending Denver Center
12:25PM 39.4336 -104.7772 23° Northeast 256 295 12,000 -1,380 Descending Denver Center
12:26PM 39.4983 -104.7394 24° Northeast 255 293 10,700 -1,140 Descending Denver Center
12:27PM 39.5628 -104.6978 26° Northeast 245 282 9,700 -1,020 Descending Denver Center
12:29PM 39.6272 -104.6900 North 233 268 8,700 -1,020 Descending Denver Center
12:30PM 39.6933 -104.6894 360° North 224 258 7,700 -1,020 Descending Denver Center